Montes Claros, Brazil
Current Conditions -  °F | °C
As of 4:00 PM on Friday 24 Oct 2014 (Local Time) from SBMK Reporting Station
Broken Clouds Broken Clouds  
Wind Chill: 90°   Ceiling: 4800
Heat Index: 90°   Visibility: 6mi
Dew Point: 48°   Wind: 6mph
Humidity: 24%   Direction: 110°ESE
Pressure: 29.94"   Gusts: NA
Location:  16.72°S, 43.86°W
Report Text: SBMK 241800Z 11005KT 050V170 9999 BKN048 32/09 Q1014
Loading
Personal Weather Stations






























Interactive Weather Map
Tropical Storm Tracking
New forecast layout! Learn more

10-Day Weather Forecast

Advertisements
Track Severe Weather on mobile